Time;durP1;ratioP1;P1;durP2;ratioP2;P2;SDS_P1;SDS_P2;PMS_P1;PMS_P2;Temp;Humidity;BMP_temperature;BMP_pressure;BME280_temperature;BME280_humidity;BME280_pressure;Samples;Min_cycle;Max_cycle;Signal;HPM_P1;HPM_P2
2021/01/11 00:02:24;;;;;;;27.45;13.85;;;3.50;93.00;;;;;;5052364;28;20032;-70
2021/01/11 00:04:50;;;;;;;24.45;13.48;;;3.40;93.00;;;;;;5051562;28;20021;-70
2021/01/11 00:07:15;;;;;;;26.38;13.95;;;3.50;93.00;;;;;;5050829;28;20041;-71
2021/01/11 00:09:41;;;;;;;24.90;14.15;;;3.50;93.00;;;;;;5052035;28;20028;-71
2021/01/11 00:12:07;;;;;;;25.45;13.68;;;3.50;92.90;;;;;;5050855;28;20029;-71
2021/01/11 00:14:33;;;;;;;26.40;13.82;;;3.50;92.90;;;;;;5051100;28;20171;-70
2021/01/11 00:16:59;;;;;;;25.85;12.57;;;3.50;92.80;;;;;;5051533;28;20103;-71
2021/01/11 00:19:25;;;;;;;25.10;13.35;;;3.50;92.80;;;;;;5050413;28;20456;-71
2021/01/11 00:21:50;;;;;;;24.98;12.80;;;3.50;92.70;;;;;;5051065;28;20374;-71
2021/01/11 00:24:16;;;;;;;24.52;13.02;;;3.50;92.70;;;;;;5050957;28;20482;-70
2021/01/11 00:26:52;;;;;;;23.67;13.27;;;3.60;92.60;;;;;;5051366;28;20039;-70
2021/01/11 00:29:19;;;;;;;22.58;11.95;;;3.60;92.50;;;;;;5054283;28;20040;-70
2021/01/11 00:31:45;;;;;;;25.20;14.27;;;3.60;92.50;;;;;;5051619;28;20056;-70
2021/01/11 00:34:10;;;;;;;24.00;11.73;;;3.60;92.40;;;;;;5051136;28;20516;-70
2021/01/11 00:36:36;;;;;;;23.55;12.23;;;3.60;92.40;;;;;;5051496;28;20029;-70
2021/01/11 00:39:02;;;;;;;24.40;12.70;;;3.60;92.40;;;;;;5052805;28;20394;-71
2021/01/11 00:41:28;;;;;;;26.67;12.95;;;3.60;92.40;;;;;;5055107;28;20029;-70
2021/01/11 00:43:53;;;;;;;20.77;12.55;;;3.60;92.30;;;;;;5052816;28;20044;-70
2021/01/11 00:46:27;;;;;;;23.50;13.05;;;3.60;92.30;;;;;;5054729;28;20027;-70
2021/01/11 00:48:53;;;;;;;25.95;13.57;;;3.70;92.20;;;;;;5057484;28;20033;-70
2021/01/11 00:51:19;;;;;;;23.17;12.18;;;3.60;92.20;;;;;;5054327;28;20390;-69
2021/01/11 00:53:44;;;;;;;23.48;12.55;;;3.60;92.20;;;;;;5054644;28;20060;-70
2021/01/11 00:56:12;;;;;;;23.58;13.02;;;3.60;92.20;;;;;;5051091;28;20124;-70
2021/01/11 00:58:38;;;;;;;22.75;12.40;;;3.60;92.10;;;;;;5050939;28;20044;-70
2021/01/11 01:01:03;;;;;;;22.48;11.98;;;3.60;92.20;;;;;;5051183;28;20024;-70
2021/01/11 01:03:29;;;;;;;26.50;13.20;;;3.70;92.20;;;;;;5059018;28;20074;-70
2021/01/11 01:05:54;;;;;;;21.75;12.10;;;3.60;92.10;;;;;;5051257;28;20047;-70
2021/01/11 01:08:20;;;;;;;24.67;12.60;;;3.70;92.20;;;;;;5052115;28;20045;-70
2021/01/11 01:10:45;;;;;;;22.13;12.23;;;3.70;92.20;;;;;;5058081;28;20078;-71
2021/01/11 01:13:11;;;;;;;21.98;12.10;;;3.70;92.10;;;;;;5085781;28;20047;-71
2021/01/11 01:15:37;;;;;;;21.92;12.00;;;3.80;92.10;;;;;;5060435;28;20110;-70
2021/01/11 01:18:02;;;;;;;22.77;12.52;;;3.80;92.10;;;;;;5054223;28;20141;-71
2021/01/11 01:20:28;;;;;;;21.10;12.30;;;3.80;92.00;;;;;;5054779;28;20613;-71
2021/01/11 01:22:53;;;;;;;21.38;11.95;;;3.80;92.00;;;;;;5053513;28;20158;-71
2021/01/11 01:25:19;;;;;;;19.55;11.65;;;3.80;91.90;;;;;;5054624;28;20075;-71
2021/01/11 01:27:44;;;;;;;22.38;11.43;;;3.80;91.90;;;;;;5054305;28;20143;-70
2021/01/11 01:30:11;;;;;;;22.67;12.02;;;3.80;91.90;;;;;;5063523;28;20024;-71
2021/01/11 01:32:38;;;;;;;18.48;10.70;;;3.80;91.90;;;;;;5070100;28;20450;-71
2021/01/11 01:35:04;;;;;;;21.67;11.40;;;3.80;91.80;;;;;;5064580;28;20032;-70
2021/01/11 01:37:30;;;;;;;21.95;11.80;;;3.90;91.80;;;;;;5072374;28;20523;-71
2021/01/11 01:39:55;;;;;;;20.13;11.77;;;3.90;91.80;;;;;;5055846;28;20024;-70
2021/01/11 01:42:21;;;;;;;21.58;11.25;;;3.90;91.70;;;;;;5055557;28;20160;-71
2021/01/11 01:44:46;;;;;;;22.92;12.25;;;3.90;91.70;;;;;;5069210;28;20091;-70
2021/01/11 01:47:13;;;;;;;21.00;11.23;;;3.90;91.60;;;;;;5054075;28;20025;-70
2021/01/11 01:49:39;;;;;;;20.27;11.30;;;4.00;91.60;;;;;;5054108;28;20500;-70
2021/01/11 01:52:07;;;;;;;18.00;10.82;;;3.90;91.60;;;;;;5054450;28;20029;-71
2021/01/11 01:54:34;;;;;;;19.30;10.73;;;4.00;91.60;;;;;;5058697;28;20028;-71
2021/01/11 01:56:59;;;;;;;21.48;11.52;;;4.00;91.50;;;;;;5073989;28;20032;-72
2021/01/11 01:59:27;;;;;;;22.02;11.15;;;4.00;91.40;;;;;;5069120;28;20124;-71
2021/01/11 02:01:53;;;;;;;19.90;10.95;;;4.00;91.40;;;;;;5073530;28;20045;-70
2021/01/11 02:04:19;;;;;;;18.42;10.18;;;4.10;91.30;;;;;;5055595;28;20055;-70
2021/01/11 02:06:47;;;;;;;18.02;10.43;;;4.10;91.20;;;;;;5052925;28;20028;-71
2021/01/11 02:09:22;;;;;;;20.10;10.55;;;4.10;91.20;;;;;;5053936;28;20389;-70
2021/01/11 02:11:54;;;;;;;20.35;9.98;;;4.10;91.10;;;;;;5054009;28;20036;-71
2021/01/11 02:14:51;;;;;;;18.60;10.18;;;4.20;91.00;;;;;;5053528;28;20059;-71
2021/01/11 02:17:26;;;;;;;18.45;10.02;;;4.20;91.00;;;;;;5072881;28;20020;-71
2021/01/11 02:20:10;;;;;;;;;;;4.20;91.00;;;;;;5063365;28;20107;-71
2021/01/11 02:23:18;;;;;;;18.67;9.80;;;4.20;91.10;;;;;;5052841;28;19922;-70
2021/01/11 02:26:08;;;;;;;17.73;9.85;;;4.20;90.80;;;;;;5059419;28;20032;-70
2021/01/11 02:28:43;;;;;;;17.50;9.55;;;4.20;90.90;;;;;;5062004;28;20127;-70
2021/01/11 02:31:09;;;;;;;19.40;9.60;;;4.30;90.90;;;;;;5053252;28;20029;-70
2021/01/11 02:33:36;;;;;;;16.73;9.38;;;4.30;90.80;;;;;;5053637;28;20052;-70
2021/01/11 02:36:09;;;;;;;20.08;11.20;;;4.30;90.70;;;;;;5056139;28;20033;-70
2021/01/11 02:38:37;;;;;;;16.35;9.63;;;4.30;90.70;;;;;;5053602;28;20029;-70
2021/01/11 02:41:03;;;;;;;17.40;8.80;;;4.30;90.80;;;;;;5053131;28;20036;-70
2021/01/11 02:43:29;;;;;;;16.30;9.40;;;4.30;90.60;;;;;;5052661;28;20021;-71
2021/01/11 02:45:54;;;;;;;17.05;9.68;;;4.30;90.40;;;;;;5052752;28;20029;-71
2021/01/11 02:48:43;;;;;;;18.85;10.25;;;4.30;90.50;;;;;;5055149;28;20051;-71
2021/01/11 02:51:35;;;;;;;16.00;9.10;;;4.30;90.40;;;;;;5056439;28;20032;-71
2021/01/11 02:54:22;;;;;;;16.42;9.85;;;4.30;90.50;;;;;;5060179;28;20049;-71
2021/01/11 02:57:07;;;;;;;16.55;9.40;;;4.30;90.40;;;;;;5051916;28;20040;-72
2021/01/11 02:59:43;;;;;;;16.27;10.15;;;4.40;90.40;;;;;;5061884;28;20104;-72
2021/01/11 03:02:11;;;;;;;18.02;10.15;;;4.40;90.40;;;;;;5052594;28;20032;-72
2021/01/11 03:04:38;;;;;;;19.65;10.73;;;4.40;90.40;;;;;;5060093;28;20067;-71
2021/01/11 03:07:06;;;;;;;15.73;10.25;;;4.30;90.40;;;;;;5052814;28;20405;-72
2021/01/11 03:09:34;;;;;;;16.83;10.23;;;4.30;90.30;;;;;;5060151;28;20040;-72
2021/01/11 03:12:00;;;;;;;19.50;10.70;;;4.30;90.40;;;;;;5052245;28;20071;-70
2021/01/11 03:14:26;;;;;;;18.92;10.35;;;4.30;90.40;;;;;;5059940;28;20029;-71
2021/01/11 03:16:52;;;;;;;18.73;9.73;;;4.30;90.40;;;;;;5050403;28;20389;-71
2021/01/11 03:19:18;;;;;;;16.92;10.25;;;4.30;90.30;;;;;;5052223;28;20025;-71
2021/01/11 03:21:44;;;;;;;17.23;9.60;;;4.40;90.30;;;;;;5070254;28;20025;-71
2021/01/11 03:24:09;;;;;;;16.67;9.18;;;4.40;90.20;;;;;;5069808;28;20531;-71
2021/01/11 03:26:35;;;;;;;18.63;9.55;;;4.50;90.10;;;;;;5066634;28;20033;-71
2021/01/11 03:29:02;;;;;;;18.48;10.05;;;4.50;90.10;;;;;;5072487;28;20119;-70
2021/01/11 03:31:27;;;;;;;16.42;9.70;;;4.50;90.10;;;;;;5052869;28;20040;-70
2021/01/11 03:33:53;;;;;;;15.77;9.90;;;4.50;90.10;;;;;;5052272;28;20025;-70
2021/01/11 03:36:19;;;;;;;17.08;9.57;;;4.50;90.10;;;;;;5054410;28;20416;-69
2021/01/11 03:38:46;;;;;;;17.60;9.85;;;4.50;90.00;;;;;;5051151;28;20076;-70
2021/01/11 03:41:12;;;;;;;16.52;9.35;;;4.50;90.00;;;;;;5051220;28;20029;-70
2021/01/11 03:43:39;;;;;;;16.50;9.68;;;4.50;90.00;;;;;;5051518;28;20029;-69
2021/01/11 03:46:05;;;;;;;17.05;9.52;;;4.50;90.00;;;;;;5051941;28;20021;-69
2021/01/11 03:48:31;;;;;;;16.85;9.63;;;4.50;90.00;;;;;;5051642;28;20045;-70
2021/01/11 03:50:56;;;;;;;19.55;10.32;;;4.50;90.00;;;;;;5062198;28;20385;-70
2021/01/11 03:53:22;;;;;;;15.75;9.13;;;4.60;90.10;;;;;;5056190;28;20032;-69
2021/01/11 03:55:47;;;;;;;15.32;9.27;;;4.50;90.20;;;;;;5056603;28;20080;-70
2021/01/11 03:58:13;;;;;;;13.82;9.45;;;4.50;90.30;;;;;;5051941;28;20404;-70
2021/01/11 04:00:38;;;;;;;17.80;9.68;;;4.60;90.40;;;;;;5055447;28;20046;-70
2021/01/11 04:03:04;;;;;;;14.60;9.32;;;4.50;90.50;;;;;;5059214;28;20067;-70
2021/01/11 04:05:30;;;;;;;17.48;9.32;;;4.50;90.70;;;;;;5051547;28;20055;-70
2021/01/11 04:07:56;;;;;;;16.83;9.77;;;4.50;90.80;;;;;;5057002;28;20063;-70
2021/01/11 04:10:22;;;;;;;15.40;9.23;;;4.50;91.00;;;;;;5051429;28;20470;-70
2021/01/11 04:12:47;;;;;;;17.80;9.43;;;4.40;91.10;;;;;;5051173;28;20025;-70
2021/01/11 04:15:13;;;;;;;18.40;9.75;;;4.50;91.20;;;;;;5051081;28;20040;-70
2021/01/11 04:17:39;;;;;;;17.05;9.77;;;4.40;91.30;;;;;;5051233;28;20032;-70
2021/01/11 04:20:06;;;;;;;17.48;9.52;;;4.40;91.40;;;;;;5052222;28;20025;-70
2021/01/11 04:22:31;;;;;;;15.68;9.45;;;4.40;91.40;;;;;;5051106;28;20036;-70
2021/01/11 04:24:57;;;;;;;16.95;9.95;;;4.40;91.50;;;;;;5055797;28;20025;-71
2021/01/11 04:27:23;;;;;;;17.63;10.18;;;4.40;91.60;;;;;;5069796;28;20499;-71
2021/01/11 04:29:49;;;;;;;17.55;9.80;;;4.40;91.60;;;;;;5065862;28;20020;-70
2021/01/11 04:32:14;;;;;;;19.67;9.13;;;4.40;91.70;;;;;;5051337;28;20026;-70
2021/01/11 04:34:40;;;;;;;16.58;10.25;;;4.40;91.70;;;;;;5059192;28;20066;-71
2021/01/11 04:37:09;;;;;;;15.68;9.15;;;4.40;91.70;;;;;;5051641;28;20555;-71
2021/01/11 04:39:35;;;;;;;20.63;11.23;;;4.40;91.70;;;;;;5052327;28;20025;-70
2021/01/11 04:42:04;;;;;;;17.75;11.10;;;4.40;91.80;;;;;;5071119;28;20051;-70
2021/01/11 04:44:32;;;;;;;19.77;10.68;;;4.30;91.90;;;;;;5067498;28;20476;-70
2021/01/11 04:46:59;;;;;;;16.58;9.63;;;4.30;91.90;;;;;;5055334;28;20500;-70
2021/01/11 04:49:25;;;;;;;17.42;9.88;;;4.30;92.00;;;;;;5055119;28;20039;-70
2021/01/11 04:51:51;;;;;;;17.15;10.38;;;4.30;92.00;;;;;;5055260;28;20029;-71
2021/01/11 04:54:21;;;;;;;16.48;10.00;;;4.30;92.00;;;;;;5054644;28;20046;-71
2021/01/11 04:56:48;;;;;;;15.13;9.63;;;4.30;92.00;;;;;;5074754;28;20119;-71
2021/01/11 04:59:20;;;;;;;15.73;9.85;;;4.30;92.10;;;;;;5074337;28;20040;-70
2021/01/11 05:01:51;;;;;;;16.38;9.95;;;4.40;92.10;;;;;;5058368;28;20025;-70
2021/01/11 05:04:17;;;;;;;16.92;10.52;;;4.40;92.10;;;;;;5054842;28;20020;-70
2021/01/11 05:06:46;;;;;;;15.05;9.13;;;4.30;92.20;;;;;;5060151;28;20033;-71
2021/01/11 05:09:14;;;;;;;17.58;10.18;;;4.40;92.20;;;;;;5071889;28;20024;-70
2021/01/11 05:11:41;;;;;;;18.70;10.15;;;4.40;92.20;;;;;;5054740;28;20087;-70
2021/01/11 05:14:07;;;;;;;16.00;10.10;;;4.30;92.30;;;;;;5054978;28;20373;-70
2021/01/11 05:16:34;;;;;;;18.10;10.25;;;4.30;92.30;;;;;;5053844;28;20032;-70
2021/01/11 05:19:22;;;;;;;18.08;10.07;;;4.30;92.30;;;;;;5054393;28;20545;-71
2021/01/11 05:21:48;;;;;;;18.30;10.18;;;4.30;92.30;;;;;;5054129;28;20033;-70
2021/01/11 05:24:32;;;;;;;15.48;9.90;;;4.40;92.30;;;;;;5054399;28;20366;-70
2021/01/11 05:27:01;;;;;;;17.27;10.18;;;4.40;92.30;;;;;;5053245;28;20059;-70
2021/01/11 05:29:27;;;;;;;18.42;9.50;;;4.40;92.40;;;;;;5054386;28;20040;-70
2021/01/11 05:32:13;;;;;;;16.83;9.95;;;4.40;92.40;;;;;;5054007;28;20409;-70
2021/01/11 05:34:50;;;;;;;14.57;9.50;;;4.40;92.30;;;;;;5061354;28;20048;-70
2021/01/11 05:37:44;;;;;;;16.70;9.18;;;4.40;92.30;;;;;;5054468;28;20025;-70
2021/01/11 05:40:11;;;;;;;17.27;10.23;;;4.40;92.30;;;;;;5053510;28;20036;-70
2021/01/11 05:42:38;;;;;;;16.35;9.85;;;4.40;92.30;;;;;;5056109;28;20028;-71
2021/01/11 05:45:16;;;;;;;19.30;10.60;;;4.40;92.40;;;;;;5066853;28;20029;-69
2021/01/11 05:47:58;;;;;;;17.02;9.40;;;4.40;92.40;;;;;;5053792;28;20127;-70
2021/01/11 05:50:27;;;;;;;14.55;9.82;;;4.40;92.40;;;;;;5060939;28;20032;-71
2021/01/11 05:52:52;;;;;;;16.23;9.63;;;4.30;92.40;;;;;;5064251;28;20028;-72
2021/01/11 05:55:19;;;;;;;19.17;10.18;;;4.30;92.50;;;;;;5060902;28;20044;-72
2021/01/11 05:58:03;;;;;;;15.95;10.75;;;4.30;92.50;;;;;;5052937;28;20037;-71
2021/01/11 06:00:34;;;;;;;15.15;9.23;;;4.40;92.50;;;;;;5053685;28;20036;-70
2021/01/11 06:03:01;;;;;;;17.38;10.27;;;4.40;92.40;;;;;;5053773;28;20032;-70
2021/01/11 06:05:29;;;;;;;17.73;10.05;;;4.30;92.40;;;;;;5052536;28;20036;-70
2021/01/11 06:07:55;;;;;;;18.63;10.18;;;4.30;92.40;;;;;;5066422;28;20525;-70
2021/01/11 06:10:22;;;;;;;16.92;10.73;;;4.30;92.40;;;;;;5063722;28;20043;-70
2021/01/11 06:12:49;;;;;;;16.65;10.13;;;4.30;92.50;;;;;;5053691;28;20131;-70
2021/01/11 06:15:23;;;;;;;16.60;10.48;;;4.30;92.50;;;;;;5053200;28;20021;-70
2021/01/11 06:17:50;;;;;;;16.58;10.98;;;4.30;92.50;;;;;;5054642;28;20082;-71
2021/01/11 06:20:20;;;;;;;16.25;10.07;;;4.30;92.50;;;;;;5053077;28;20044;-71
2021/01/11 06:22:45;;;;;;;16.33;10.60;;;4.30;92.50;;;;;;5054060;28;20044;-70
2021/01/11 06:25:17;;;;;;;17.98;10.20;;;4.30;92.50;;;;;;5052902;28;20025;-71
2021/01/11 06:27:55;;;;;;;17.15;10.30;;;4.30;92.60;;;;;;5053192;28;20040;-71
2021/01/11 06:30:33;;;;;;;16.50;10.45;;;4.30;92.50;;;;;;5060376;28;20119;-71
2021/01/11 06:33:08;;;;;;;18.27;10.93;;;4.30;92.60;;;;;;5073253;28;20029;-71
2021/01/11 06:35:36;;;;;;;18.75;10.30;;;4.30;92.60;;;;;;5060744;28;20056;-72
2021/01/11 06:38:25;;;;;;;16.38;10.82;;;4.30;92.50;;;;;;5051945;28;20060;-72
2021/01/11 06:40:54;;;;;;;18.27;10.05;;;4.30;92.50;;;;;;5052797;28;20033;-72
2021/01/11 06:43:21;;;;;;;16.50;9.48;;;4.40;92.40;;;;;;5053071;28;20048;-71
2021/01/11 06:45:47;;;;;;;14.40;9.30;;;4.40;92.40;;;;;;5053481;28;20029;-72
2021/01/11 06:48:31;;;;;;;18.08;10.95;;;4.30;92.40;;;;;;5053083;28;20086;-72
2021/01/11 06:51:05;;;;;;;17.02;10.18;;;4.40;92.30;;;;;;5052704;28;20032;-72
2021/01/11 06:53:31;;;;;;;16.87;10.33;;;4.40;92.30;;;;;;5052932;28;20029;-72
2021/01/11 06:56:08;;;;;;;16.75;10.48;;;4.30;92.30;;;;;;5065344;28;20371;-71
2021/01/11 06:58:35;;;;;;;15.07;9.90;;;4.30;92.30;;;;;;5072818;28;20021;-71
2021/01/11 07:01:09;;;;;;;16.38;10.45;;;4.30;92.40;;;;;;5070066;28;20572;-71
2021/01/11 07:03:48;;;;;;;16.67;10.15;;;4.30;92.30;;;;;;5059569;28;20443;-71
2021/01/11 07:06:40;;;;;;;17.17;10.82;;;4.30;92.30;;;;;;5053011;28;20455;-70
2021/01/11 07:09:06;;;;;;;17.83;10.43;;;4.30;92.30;;;;;;5052875;28;20041;-69
2021/01/11 07:11:37;;;;;;;17.25;10.27;;;4.30;92.40;;;;;;5070047;28;20393;-69
2021/01/11 07:14:03;;;;;;;18.10;10.35;;;4.20;92.30;;;;;;5067884;28;20037;-70
2021/01/11 07:16:44;;;;;;;15.00;9.55;;;4.20;92.40;;;;;;5060437;28;20580;-69
2021/01/11 07:19:11;;;;;;;16.52;9.93;;;4.20;92.40;;;;;;5052419;28;20025;-69
2021/01/11 07:21:36;;;;;;;18.10;10.25;;;4.20;92.50;;;;;;5070715;28;20035;-71
2021/01/11 07:24:03;;;;;;;16.83;11.13;;;4.20;92.60;;;;;;5072009;28;20389;-70
2021/01/11 07:26:30;;;;;;;17.15;9.45;;;4.20;92.60;;;;;;5067993;28;20036;-70
2021/01/11 07:29:10;;;;;;;17.17;10.07;;;4.20;92.50;;;;;;5058872;28;20032;-71
2021/01/11 07:31:46;;;;;;;18.65;10.10;;;4.30;92.50;;;;;;5051916;28;20037;-71
2021/01/11 07:34:16;;;;;;;16.85;9.90;;;4.20;92.40;;;;;;5056893;28;20035;-71
2021/01/11 07:36:50;;;;;;;14.18;9.57;;;4.20;92.50;;;;;;5070987;28;20028;-71
2021/01/11 07:39:18;;;;;;;16.85;9.73;;;4.20;92.50;;;;;;5056369;28;20036;-73
2021/01/11 07:41:52;;;;;;;17.90;9.50;;;4.20;92.60;;;;;;5051861;28;20055;-74
2021/01/11 07:44:20;;;;;;;16.08;9.90;;;4.20;92.60;;;;;;5052889;28;20374;-70
2021/01/11 07:46:55;;;;;;;17.77;10.93;;;4.20;92.60;;;;;;5051869;28;20097;-69
2021/01/11 07:49:21;;;;;;;15.35;10.18;;;4.20;92.60;;;;;;5051059;28;20619;-69
2021/01/11 07:51:48;;;;;;;15.30;9.68;;;4.20;92.60;;;;;;5070994;28;20021;-65
2021/01/11 07:54:19;;;;;;;16.92;9.90;;;4.20;92.50;;;;;;5063842;28;20044;-65
2021/01/11 07:56:46;;;;;;;17.67;9.32;;;4.30;92.50;;;;;;5051768;28;20493;-65
2021/01/11 07:59:12;;;;;;;16.40;9.77;;;4.30;92.50;;;;;;5055676;28;20025;-65
2021/01/11 08:01:40;;;;;;;17.27;9.30;;;4.20;92.40;;;;;;5051197;28;20363;-65
2021/01/11 08:04:06;;;;;;;16.33;9.82;;;4.30;92.40;;;;;;5051529;28;20422;-65
2021/01/11 08:06:53;;;;;;;15.18;9.07;;;4.30;92.50;;;;;;5051184;28;20125;-64
2021/01/11 08:09:21;;;;;;;18.50;10.70;;;4.30;92.40;;;;;;5066115;28;20534;-65
2021/01/11 08:11:47;;;;;;;15.45;10.30;;;4.30;92.30;;;;;;5068318;28;20034;-65
2021/01/11 08:14:13;;;;;;;16.85;10.98;;;4.40;92.30;;;;;;5069564;28;20108;-65
2021/01/11 08:16:40;;;;;;;17.48;9.82;;;4.30;92.30;;;;;;5051129;28;20086;-65
2021/01/11 08:19:11;;;;;;;17.60;9.48;;;4.30;92.40;;;;;;5050696;28;20025;-65
2021/01/11 08:21:39;;;;;;;15.82;10.25;;;4.40;92.40;;;;;;5051017;28;20102;-65
2021/01/11 08:24:07;;;;;;;16.45;10.27;;;4.40;92.30;;;;;;5055461;28;20035;-65
2021/01/11 08:26:54;;;;;;;17.05;10.00;;;4.50;92.30;;;;;;5050385;28;20027;-64
2021/01/11 08:29:20;;;;;;;15.00;9.73;;;4.50;92.30;;;;;;5040029;28;20044;-65
2021/01/11 08:31:46;;;;;;;18.02;11.07;;;4.50;92.20;;;;;;5059466;28;20400;-64
2021/01/11 08:34:12;;;;;;;16.50;9.38;;;4.60;92.10;;;;;;5050546;28;20356;-64
2021/01/11 08:36:41;;;;;;;15.82;8.90;;;4.60;92.10;;;;;;5051380;28;20021;-64
2021/01/11 08:39:07;;;;;;;15.27;8.55;;;4.60;92.00;;;;;;5059196;28;20070;-65
2021/01/11 08:41:35;;;;;;;16.80;9.27;;;4.60;91.90;;;;;;5053912;28;20087;-65
2021/01/11 08:44:01;;;;;;;15.18;8.60;;;4.70;91.80;;;;;;5051375;28;20520;-65
2021/01/11 08:46:52;;;;;;;13.05;8.77;;;4.70;91.70;;;;;;5050780;28;20025;-65
2021/01/11 08:49:18;;;;;;;14.13;8.85;;;4.80;91.70;;;;;;5050422;28;20505;-66
2021/01/11 08:51:46;;;;;;;12.88;8.27;;;4.80;91.80;;;;;;5052028;28;20082;-65
2021/01/11 08:54:27;;;;;;;14.57;8.98;;;4.80;91.50;;;;;;5055851;28;20057;-65
2021/01/11 08:56:58;;;;;;;13.88;8.50;;;4.90;91.40;;;;;;5051423;28;20033;-65
2021/01/11 08:59:25;;;;;;;12.73;8.18;;;4.90;91.30;;;;;;5050565;28;20017;-65
2021/01/11 09:01:51;;;;;;;14.20;9.00;;;4.90;91.30;;;;;;5050089;28;20091;-65
2021/01/11 09:04:33;;;;;;;14.88;8.50;;;4.90;91.40;;;;;;5050754;28;20025;-65
2021/01/11 09:07:04;;;;;;;13.68;7.95;;;4.90;91.30;;;;;;5082605;28;20048;-65
2021/01/11 09:09:31;;;;;;;14.23;8.35;;;4.90;91.20;;;;;;5085168;28;20774;-65
2021/01/11 09:12:05;;;;;;;14.48;8.65;;;5.00;91.10;;;;;;5068069;28;20021;-64
2021/01/11 09:14:32;;;;;;;16.47;9.87;;;5.00;91.10;;;;;;5067368;28;20044;-65
2021/01/11 09:17:04;;;;;;;16.88;10.60;;;5.00;91.00;;;;;;5068108;28;20278;-65
2021/01/11 09:19:30;;;;;;;15.57;9.32;;;5.00;90.90;;;;;;5061499;28;20021;-65
2021/01/11 09:22:05;;;;;;;15.43;9.13;;;5.00;91.00;;;;;;5056214;28;20469;-64
2021/01/11 09:24:32;;;;;;;16.27;9.98;;;5.00;91.00;;;;;;5062151;28;20487;-65
2021/01/11 09:26:58;;;;;;;13.15;8.60;;;5.00;90.90;;;;;;5050513;28;20169;-64
2021/01/11 09:29:24;;;;;;;16.40;8.77;;;5.10;90.90;;;;;;5063007;28;20123;-64
2021/01/11 09:31:50;;;;;;;13.75;8.63;;;5.10;90.80;;;;;;5073988;28;20036;-65
2021/01/11 09:34:17;;;;;;;14.80;8.68;;;5.10;90.90;;;;;;5061762;28;20033;-65
2021/01/11 09:36:44;;;;;;;12.05;8.07;;;5.10;90.80;;;;;;5054128;28;20025;-65
2021/01/11 09:39:13;;;;;;;19.88;8.38;;;5.10;90.90;;;;;;5054407;28;20094;-65
2021/01/11 09:41:45;;;;;;;13.57;8.20;;;5.10;91.10;;;;;;5053854;28;20017;-66
2021/01/11 09:44:11;;;;;;;13.65;7.50;;;5.10;90.90;;;;;;5058600;28;20064;-65
2021/01/11 09:46:41;;;;;;;14.45;8.30;;;5.20;90.90;;;;;;5059460;28;20048;-65
2021/01/11 09:49:06;;;;;;;12.25;7.30;;;5.20;91.00;;;;;;5056371;28;20044;-65
2021/01/11 09:51:32;;;;;;;12.68;7.30;;;5.30;90.80;;;;;;5057707;28;20029;-65
2021/01/11 09:53:57;;;;;;;12.30;7.78;;;5.30;90.60;;;;;;5062050;28;20036;-66
2021/01/11 09:56:23;;;;;;;13.30;7.80;;;5.30;90.50;;;;;;5077705;28;20024;-65
2021/01/11 09:58:51;;;;;;;14.20;7.15;;;5.30;90.40;;;;;;5078760;28;20052;-65
2021/01/11 10:01:17;;;;;;;12.73;8.18;;;5.40;90.40;;;;;;5053892;28;20017;-65
2021/01/11 10:03:42;;;;;;;12.90;8.05;;;5.40;90.30;;;;;;5060920;28;20021;-66
2021/01/11 10:06:08;;;;;;;12.63;7.55;;;5.40;90.30;;;;;;5054123;28;20505;-65
2021/01/11 10:08:35;;;;;;;14.50;8.02;;;5.40;90.20;;;;;;5075535;28;20040;-65
2021/01/11 10:11:04;;;;;;;13.60;7.78;;;5.40;90.20;;;;;;5091278;28;20602;-66
2021/01/11 10:13:29;;;;;;;14.20;8.50;;;5.40;90.20;;;;;;5060364;28;20040;-65
2021/01/11 10:15:55;;;;;;;14.05;7.80;;;5.50;90.00;;;;;;5063089;28;20433;-65
2021/01/11 10:18:20;;;;;;;14.95;7.90;;;5.40;90.10;;;;;;5072432;28;20043;-65
2021/01/11 10:20:46;;;;;;;12.05;7.38;;;5.50;90.10;;;;;;5076848;28;20057;-65
2021/01/11 10:23:11;;;;;;;11.90;6.68;;;5.50;90.00;;;;;;5055493;28;20509;-65
2021/01/11 10:25:37;;;;;;;12.43;7.07;;;5.60;89.90;;;;;;5052907;28;20025;-65
2021/01/11 10:28:02;;;;;;;11.02;6.43;;;5.50;89.50;;;;;;5051449;28;20534;-65
2021/01/11 10:30:28;;;;;;;13.93;7.25;;;5.60;89.60;;;;;;5052981;28;20112;-65
2021/01/11 10:32:53;;;;;;;10.27;6.38;;;5.60;89.60;;;;;;5060109;28;20030;-65
2021/01/11 10:35:19;;;;;;;10.57;6.75;;;5.60;89.50;;;;;;5065930;28;20028;-65
2021/01/11 10:37:44;;;;;;;11.13;6.85;;;5.60;89.50;;;;;;5052596;28;20115;-65
2021/01/11 10:40:10;;;;;;;11.20;7.13;;;5.60;89.40;;;;;;5057662;28;20024;-65
2021/01/11 10:42:35;;;;;;;11.27;6.63;;;5.60;89.70;;;;;;5055650;28;20032;-65
2021/01/11 10:45:01;;;;;;;10.93;6.70;;;5.60;89.30;;;;;;5053916;28;20533;-70
2021/01/11 10:47:27;;;;;;;10.77;6.40;;;5.70;88.90;;;;;;5057513;28;20432;-71
2021/01/11 10:49:52;;;;;;;10.90;6.93;;;5.60;88.70;;;;;;5051952;28;20071;-72
2021/01/11 10:52:18;;;;;;;12.43;7.22;;;5.70;88.50;;;;;;5069431;28;20461;-73
2021/01/11 10:54:43;;;;;;;11.68;7.03;;;5.70;88.80;;;;;;5059988;28;20095;-71
2021/01/11 10:57:09;;;;;;;12.18;7.15;;;5.60;88.80;;;;;;5056639;28;20413;-66
2021/01/11 10:59:34;;;;;;;11.93;6.60;;;5.70;88.80;;;;;;5059802;28;20025;-65
2021/01/11 11:02:00;;;;;;;12.30;7.05;;;5.60;88.60;;;;;;5072451;28;20362;-66
2021/01/11 11:04:26;;;;;;;10.32;6.55;;;5.70;88.50;;;;;;5059674;28;20029;-66
2021/01/11 11:06:56;;;;;;;11.48;7.47;;;5.70;88.40;;;;;;5051470;28;20381;-65
2021/01/11 11:09:22;;;;;;;11.55;6.60;;;5.70;88.20;;;;;;5054863;28;20127;-65
2021/01/11 11:11:52;;;;;;;10.05;6.65;;;5.70;88.20;;;;;;5051093;28;20536;-66
2021/01/11 11:14:17;;;;;;;13.88;7.00;;;5.70;88.30;;;;;;5052395;28;20025;-64
2021/01/11 11:16:43;;;;;;;11.18;6.47;;;5.70;88.30;;;;;;5052411;28;20036;-65
2021/01/11 11:19:08;;;;;;;14.10;6.80;;;5.70;88.70;;;;;;5070460;28;20029;-65
2021/01/11 11:21:34;;;;;;;10.70;6.72;;;5.70;88.90;;;;;;5053468;28;20025;-65
2021/01/11 11:23:59;;;;;;;13.65;7.47;;;5.70;89.30;;;;;;5052286;28;20037;-66
2021/01/11 11:26:25;;;;;;;11.85;6.85;;;5.70;89.40;;;;;;5057775;28;20136;-65
2021/01/11 11:28:50;;;;;;;12.63;7.25;;;5.70;89.90;;;;;;5052223;28;20220;-65
2021/01/11 11:31:16;;;;;;;10.60;6.70;;;5.70;90.00;;;;;;5056158;28;20203;-66
2021/01/11 11:33:41;;;;;;;9.25;6.57;;;5.70;90.10;;;;;;5051731;28;20060;-65
2021/01/11 11:36:07;;;;;;;11.80;7.65;;;5.70;90.10;;;;;;5051521;28;20028;-65
2021/01/11 11:38:32;;;;;;;12.18;6.65;;;5.70;90.00;;;;;;5051486;28;20108;-66
2021/01/11 11:40:58;;;;;;;10.90;6.45;;;5.70;90.10;;;;;;5060027;28;20048;-65
2021/01/11 11:43:23;;;;;;;13.27;6.63;;;5.70;90.10;;;;;;5051627;28;20057;-66
2021/01/11 11:45:49;;;;;;;10.48;6.43;;;5.70;90.20;;;;;;5051577;28;20485;-67
2021/01/11 11:48:15;;;;;;;9.10;5.68;;;5.60;90.30;;;;;;5057123;28;20098;-67
2021/01/11 11:50:42;;;;;;;9.95;6.65;;;5.70;90.20;;;;;;5060198;28;20021;-66
2021/01/11 11:53:07;;;;;;;11.73;6.63;;;5.70;90.20;;;;;;5062373;28;20063;-66
2021/01/11 11:55:34;;;;;;;10.55;6.72;;;5.70;90.50;;;;;;5051502;28;20092;-66
2021/01/11 11:58:00;;;;;;;12.80;6.80;;;5.70;90.60;;;;;;5051850;28;20083;-67
2021/01/11 12:00:25;;;;;;;13.82;7.63;;;5.70;90.50;;;;;;5058632;28;20021;-66
2021/01/11 12:02:51;;;;;;;11.73;7.00;;;5.60;90.70;;;;;;5059033;28;20032;-66
2021/01/11 12:05:18;;;;;;;13.30;7.00;;;5.70;90.90;;;;;;5048949;28;20539;-66
2021/01/11 12:07:48;;;;;;;15.82;8.00;;;5.60;90.90;;;;;;5049655;28;20033;-66
2021/01/11 12:10:13;;;;;;;13.57;7.22;;;5.60;91.30;;;;;;5061739;28;20813;-67
2021/01/11 12:12:39;;;;;;;12.68;7.32;;;5.60;91.00;;;;;;5053464;28;20093;-67
2021/01/11 12:15:06;;;;;;;13.93;7.45;;;5.60;91.20;;;;;;5050193;28;20048;-67
2021/01/11 12:17:32;;;;;;;13.00;7.28;;;5.50;91.30;;;;;;5051253;28;20120;-67
2021/01/11 12:19:58;;;;;;;12.23;6.60;;;5.50;91.30;;;;;;5050471;28;20024;-67
2021/01/11 12:22:24;;;;;;;11.63;7.10;;;5.60;91.70;;;;;;5060879;28;20464;-67
2021/01/11 12:24:50;;;;;;;11.95;6.72;;;5.60;91.70;;;;;;5053457;28;20032;-66
2021/01/11 12:27:15;;;;;;;11.65;6.32;;;5.60;91.60;;;;;;5051217;28;20044;-67
2021/01/11 12:29:41;;;;;;;11.05;6.93;;;5.70;91.60;;;;;;5053673;28;20029;-68
2021/01/11 12:32:07;;;;;;;9.43;6.40;;;5.70;91.50;;;;;;5063062;28;20098;-68
2021/01/11 12:34:34;;;;;;;10.68;7.03;;;5.70;91.50;;;;;;5051049;28;20029;-69
2021/01/11 12:37:01;;;;;;;12.23;7.60;;;5.70;91.40;;;;;;5062772;28;20543;-68
2021/01/11 12:39:27;;;;;;;11.30;6.85;;;5.70;91.40;;;;;;5050839;28;20056;-67
2021/01/11 12:41:53;;;;;;;13.57;7.40;;;5.70;91.30;;;;;;5050948;28;20021;-65
2021/01/11 12:44:18;;;;;;;10.93;6.65;;;5.70;91.30;;;;;;5050859;28;20598;-66
2021/01/11 12:46:44;;;;;;;11.77;7.10;;;5.70;91.20;;;;;;5053316;28;20017;-68
2021/01/11 12:49:09;;;;;;;11.45;6.65;;;5.70;91.30;;;;;;5070975;28;20094;-68
2021/01/11 12:51:35;;;;;;;12.27;7.43;;;5.70;91.40;;;;;;5048985;28;20025;-67